createdAt,value
2019-06-26T00:02:12.473Z,5.83
2019-06-26T00:04:41.176Z,5.40
2019-06-26T00:07:09.844Z,5.85
2019-06-26T00:09:38.466Z,5.83
2019-06-26T00:12:07.342Z,5.45
2019-06-26T00:14:38.742Z,5.15
2019-06-26T00:17:06.419Z,5.35
2019-06-26T00:19:35.140Z,5.95
2019-06-26T00:22:03.879Z,5.58
2019-06-26T00:24:32.511Z,5.25
2019-06-26T00:27:01.193Z,5.28
2019-06-26T00:29:29.931Z,5.55
2019-06-26T00:31:58.574Z,5.40
2019-06-26T00:34:27.260Z,5.92
2019-06-26T00:36:55.882Z,5.62
2019-06-26T00:39:24.731Z,5.75
2019-06-26T00:41:53.374Z,6.28
2019-06-26T00:44:22.205Z,6.20
2019-06-26T00:46:50.824Z,6.45
2019-06-26T00:49:20.030Z,6.37
2019-06-26T00:51:48.661Z,6.37
2019-06-26T00:54:17.397Z,6.55
2019-06-26T00:56:46.017Z,6.87
2019-06-26T00:59:14.679Z,6.62
2019-06-26T01:01:43.316Z,6.92
2019-06-26T01:04:12.001Z,6.90
2019-06-26T01:06:40.689Z,7.33
2019-06-26T01:09:09.393Z,7.78
2019-06-26T01:11:38.201Z,6.70
2019-06-26T01:14:06.961Z,7.17
2019-06-26T01:16:35.686Z,7.78
2019-06-26T01:19:04.611Z,7.28
2019-06-26T01:21:33.231Z,8.35
2019-06-26T01:24:02.007Z,8.70
2019-06-26T01:26:30.704Z,8.03
2019-06-26T01:28:59.316Z,9.00
2019-06-26T01:31:28.146Z,8.78
2019-06-26T01:33:56.820Z,8.60
2019-06-26T01:36:25.645Z,8.80
2019-06-26T01:38:54.261Z,8.85
2019-06-26T01:41:23.072Z,8.53
2019-06-26T01:43:51.812Z,8.55
2019-06-26T01:46:20.478Z,8.98
2019-06-26T01:48:49.175Z,8.83
2019-06-26T01:51:17.844Z,9.05
2019-06-26T01:53:46.550Z,9.05
2019-06-26T01:56:15.243Z,9.18
2019-06-26T01:58:43.923Z,8.30
2019-06-26T02:01:12.710Z,8.85
2019-06-26T02:03:41.395Z,8.90
2019-06-26T02:06:10.082Z,9.40
2019-06-26T02:08:38.757Z,8.65
2019-06-26T02:11:07.453Z,8.83
2019-06-26T02:13:36.122Z,8.78
2019-06-26T02:16:05.214Z,8.98
2019-06-26T02:18:33.989Z,9.73
2019-06-26T02:21:02.865Z,9.13
2019-06-26T02:23:31.608Z,8.83
2019-06-26T02:26:00.293Z,8.90
2019-06-26T02:28:28.965Z,9.13
2019-06-26T02:30:57.659Z,8.95
2019-06-26T02:33:26.397Z,9.28
2019-06-26T02:35:55.072Z,9.38
2019-06-26T02:38:23.775Z,9.53
2019-06-26T02:40:52.619Z,9.58
2019-06-26T02:43:21.303Z,9.55
2019-06-26T02:45:49.980Z,9.25
2019-06-26T02:48:18.677Z,9.15
2019-06-26T02:50:47.415Z,9.20
2019-06-26T02:53:16.035Z,9.03
2019-06-26T02:55:44.707Z,8.85
2019-06-26T02:58:13.368Z,9.23
2019-06-26T03:00:42.225Z,9.05
2019-06-26T03:03:11.204Z,9.63
2019-06-26T03:05:39.865Z,9.58
2019-06-26T03:08:08.572Z,9.63
2019-06-26T03:10:37.243Z,10.05
2019-06-26T03:13:05.943Z,9.18
2019-06-26T03:15:34.615Z,9.40
2019-06-26T03:18:03.565Z,9.70
2019-06-26T03:20:37.027Z,9.60
2019-06-26T03:23:05.687Z,9.35
2019-06-26T03:25:34.309Z,9.13
2019-06-26T03:28:03.046Z,9.68
2019-06-26T03:30:31.736Z,9.23
2019-06-26T03:33:01.087Z,8.78
2019-06-26T03:35:29.823Z,10.28
2019-06-26T03:37:58.536Z,9.50
2019-06-26T03:40:27.235Z,9.40
2019-06-26T03:42:56.688Z,9.30
2019-06-26T03:45:26.573Z,9.18
2019-06-26T03:47:55.322Z,9.53
2019-06-26T03:50:23.996Z,9.18
2019-06-26T03:52:52.665Z,9.20
2019-06-26T03:55:21.278Z,9.80
2019-06-26T03:57:49.980Z,9.73
2019-06-26T04:00:29.106Z,8.83
2019-06-26T04:02:57.794Z,9.95
2019-06-26T04:05:26.603Z,9.20
2019-06-26T04:07:55.369Z,10.18
2019-06-26T04:10:24.061Z,9.25
2019-06-26T04:12:52.742Z,9.45
2019-06-26T04:15:21.569Z,9.70
2019-06-26T04:17:50.315Z,9.73
2019-06-26T04:20:18.935Z,9.20
2019-06-26T04:22:47.824Z,9.43
2019-06-26T04:25:16.569Z,9.85
2019-06-26T04:27:45.371Z,9.88
2019-06-26T04:30:15.696Z,9.53
2019-06-26T04:32:44.358Z,9.83
2019-06-26T04:35:13.534Z,10.08
2019-06-26T04:37:42.202Z,9.40
2019-06-26T04:40:11.256Z,9.55
2019-06-26T04:42:39.932Z,9.30
2019-06-26T04:45:10.507Z,9.90
2019-06-26T04:47:39.130Z,9.45
2019-06-26T04:50:09.299Z,9.33
2019-06-26T04:52:37.920Z,10.35
2019-06-26T04:55:07.672Z,9.50
2019-06-26T04:57:36.580Z,9.08
2019-06-26T05:00:07.171Z,9.25
2019-06-26T05:02:35.836Z,9.45
2019-06-26T05:05:08.024Z,9.23
2019-06-26T05:07:36.698Z,8.80
2019-06-26T05:10:08.231Z,9.13
2019-06-26T05:12:37.014Z,8.85
2019-06-26T05:15:08.025Z,8.88
2019-06-26T05:17:36.708Z,8.85
2019-06-26T05:20:09.412Z,9.15
2019-06-26T05:22:38.028Z,9.10
2019-06-26T05:25:08.511Z,9.18
2019-06-26T05:27:37.291Z,8.28
2019-06-26T05:30:10.484Z,9.03
2019-06-26T05:32:39.169Z,8.68
2019-06-26T05:35:08.557Z,8.53
2019-06-26T05:37:37.174Z,8.58
2019-06-26T05:40:11.197Z,8.70
2019-06-26T05:42:40.058Z,8.43
2019-06-26T05:45:10.227Z,8.93
2019-06-26T05:47:38.968Z,8.78
2019-06-26T05:50:08.845Z,8.45
2019-06-26T05:52:37.673Z,8.75
2019-06-26T05:55:07.408Z,8.95
2019-06-26T05:57:36.244Z,9.43
2019-06-26T06:00:09.854Z,9.53
2019-06-26T06:02:38.592Z,9.78
2019-06-26T06:05:09.294Z,9.08
2019-06-26T06:07:37.983Z,9.18
2019-06-26T06:10:07.642Z,9.30
2019-06-26T06:12:36.641Z,9.78
2019-06-26T06:15:09.039Z,10.28
2019-06-26T06:17:37.849Z,10.08
2019-06-26T06:20:07.863Z,9.40
2019-06-26T06:22:36.967Z,10.08
2019-06-26T06:25:07.860Z,10.25
2019-06-26T06:27:36.682Z,9.45
2019-06-26T06:30:09.308Z,10.88
2019-06-26T06:32:38.905Z,10.75
2019-06-26T06:35:08.405Z,10.98
2019-06-26T06:37:37.701Z,10.50
2019-06-26T06:40:07.943Z,10.55
2019-06-26T06:42:36.599Z,11.18
2019-06-26T06:45:09.160Z,10.30
2019-06-26T06:47:37.848Z,10.65
2019-06-26T06:50:06.675Z,9.93
2019-06-26T06:52:36.941Z,9.95
2019-06-26T06:55:07.292Z,10.78
2019-06-26T06:57:36.149Z,10.50
2019-06-26T07:00:07.021Z,10.45
2019-06-26T07:02:35.871Z,9.78
2019-06-26T07:05:08.593Z,10.28
2019-06-26T07:07:37.287Z,10.18
2019-06-26T07:10:07.737Z,9.68
2019-06-26T07:12:36.495Z,10.53
2019-06-26T07:15:09.548Z,10.53
2019-06-26T07:17:38.468Z,9.88
2019-06-26T07:20:07.672Z,10.28
2019-06-26T07:22:36.364Z,10.48
2019-06-26T07:25:05.647Z,10.63
2019-06-26T07:27:35.136Z,10.80
2019-06-26T07:30:05.471Z,10.70
2019-06-26T07:32:34.310Z,10.58
2019-06-26T07:35:05.237Z,10.58
2019-06-26T07:37:33.869Z,10.25
2019-06-26T07:40:03.507Z,10.05
2019-06-26T07:42:32.137Z,10.20
2019-06-26T07:45:00.815Z,10.32
2019-06-26T07:47:42.531Z,9.58
2019-06-26T07:49:59.918Z,10.05
2019-06-26T07:52:28.883Z,9.38
2019-06-26T07:54:57.506Z,10.35
2019-06-26T07:57:26.557Z,9.75
2019-06-26T07:59:55.248Z,10.38
2019-06-26T08:02:24.107Z,9.95
2019-06-26T08:04:52.844Z,10.35
2019-06-26T08:07:21.496Z,9.85
2019-06-26T08:09:50.254Z,9.60
2019-06-26T08:12:18.890Z,9.23
2019-06-26T08:14:47.584Z,9.48
2019-06-26T08:17:16.361Z,9.83
2019-06-26T08:19:45.058Z,10.13
2019-06-26T08:22:13.789Z,9.78
2019-06-26T08:24:42.440Z,10.10
2019-06-26T08:27:13.158Z,9.25
2019-06-26T08:29:41.645Z,10.05
2019-06-26T08:32:10.317Z,9.93
2019-06-26T08:34:39.040Z,9.73
2019-06-26T08:37:07.917Z,10.25
2019-06-26T08:39:36.582Z,9.48
2019-06-26T08:42:05.370Z,9.70
2019-06-26T08:44:34.167Z,9.25
2019-06-26T08:47:02.848Z,9.58
2019-06-26T08:49:31.545Z,10.50
2019-06-26T08:52:00.494Z,10.80
2019-06-26T08:54:29.336Z,10.38
2019-06-26T08:56:58.009Z,10.35
2019-06-26T08:59:26.695Z,9.88
2019-06-26T09:01:55.373Z,10.28
2019-06-26T09:04:24.120Z,10.28
2019-06-26T09:06:52.792Z,10.00
2019-06-26T09:09:21.462Z,9.43
2019-06-26T09:11:50.149Z,9.20
2019-06-26T09:14:18.824Z,9.70
2019-06-26T09:16:47.444Z,9.13
2019-06-26T09:19:16.073Z,8.70
2019-06-26T09:21:44.875Z,9.05
2019-06-26T09:24:13.570Z,10.08
2019-06-26T09:26:42.324Z,9.13
2019-06-26T09:29:11.029Z,9.38
2019-06-26T09:31:39.712Z,9.15
2019-06-26T09:34:08.374Z,8.60
2019-06-26T09:36:37.083Z,8.88
2019-06-26T09:39:07.954Z,8.78
2019-06-26T09:41:36.823Z,8.05
2019-06-26T09:44:07.135Z,6.60
2019-06-26T09:46:35.752Z,5.67
2019-06-26T09:49:04.482Z,5.78
2019-06-26T09:51:33.194Z,6.00
2019-06-26T09:54:02.636Z,6.42
2019-06-26T09:56:31.373Z,6.72
2019-06-26T09:59:00.072Z,6.87
2019-06-26T10:01:28.693Z,6.92
2019-06-26T10:03:57.363Z,5.90
2019-06-26T10:06:25.979Z,5.85
2019-06-26T10:08:54.850Z,5.95
2019-06-26T10:11:23.546Z,5.67
2019-06-26T10:13:52.160Z,5.40
2019-06-26T10:16:20.888Z,5.15
2019-06-26T10:18:49.573Z,5.50
2019-06-26T10:21:18.237Z,6.60
2019-06-26T10:23:46.902Z,5.90
2019-06-26T10:26:15.525Z,5.75
2019-06-26T10:28:44.215Z,5.85
2019-06-26T10:31:12.994Z,7.12
2019-06-26T10:33:41.661Z,6.20
2019-06-26T10:36:10.468Z,6.55
2019-06-26T10:38:39.157Z,6.70
2019-06-26T10:41:07.774Z,6.17
2019-06-26T10:43:36.439Z,6.58
2019-06-26T10:46:05.602Z,7.17
2019-06-26T10:48:34.328Z,6.80
2019-06-26T10:51:02.951Z,6.70
2019-06-26T10:53:31.617Z,6.60
2019-06-26T10:56:00.283Z,7.03
2019-06-26T10:58:29.026Z,6.92
2019-06-26T11:00:57.644Z,7.80
2019-06-26T11:03:26.446Z,6.92
2019-06-26T11:05:55.176Z,6.53
2019-06-26T11:08:23.833Z,6.90
2019-06-26T11:10:52.452Z,7.00
2019-06-26T11:13:21.390Z,7.17
2019-06-26T11:15:50.162Z,7.72
2019-06-26T11:18:19.156Z,7.35
2019-06-26T11:20:47.847Z,6.78
2019-06-26T11:23:16.538Z,7.03
2019-06-26T11:25:45.207Z,7.40
2019-06-26T11:28:13.899Z,6.40
2019-06-26T11:30:42.569Z,6.97
2019-06-26T11:33:11.264Z,7.28
2019-06-26T11:35:39.972Z,6.95
2019-06-26T11:38:08.609Z,7.22
2019-06-26T11:40:37.361Z,8.18
2019-06-26T11:43:06.126Z,8.30
2019-06-26T11:45:34.791Z,8.00
2019-06-26T11:48:03.909Z,8.05
2019-06-26T11:50:32.788Z,8.05
2019-06-26T11:53:01.459Z,6.85
2019-06-26T11:55:30.172Z,7.50
2019-06-26T11:57:58.866Z,7.67
2019-06-26T12:00:28.091Z,7.30
2019-06-26T12:02:57.342Z,7.15
2019-06-26T12:05:26.769Z,8.23
2019-06-26T12:07:55.949Z,7.90
2019-06-26T12:10:24.851Z,7.08
2019-06-26T12:12:53.464Z,7.55
2019-06-26T12:15:23.036Z,7.15
2019-06-26T12:17:51.697Z,6.40
2019-06-26T12:20:21.448Z,6.78
2019-06-26T12:22:50.059Z,6.87
2019-06-26T12:25:18.978Z,7.37
2019-06-26T12:27:47.638Z,7.53
2019-06-26T12:30:16.690Z,7.12
2019-06-26T12:33:01.551Z,7.05
2019-06-26T12:35:16.249Z,7.47
2019-06-26T12:37:45.081Z,7.40
2019-06-26T12:40:15.337Z,7.33
2019-06-26T12:42:44.019Z,8.00
2019-06-26T12:45:13.370Z,7.25
2019-06-26T12:47:42.102Z,7.62
2019-06-26T12:50:12.932Z,7.00
2019-06-26T12:52:41.728Z,6.53
2019-06-26T12:55:10.825Z,6.45
2019-06-26T12:57:39.478Z,6.83
2019-06-26T13:00:13.194Z,6.62
2019-06-26T13:02:41.923Z,6.40
2019-06-26T13:05:10.994Z,6.72
2019-06-26T13:07:39.660Z,6.28
2019-06-26T13:10:09.806Z,6.42
2019-06-26T13:12:38.419Z,6.60
2019-06-26T13:15:08.400Z,6.60
2019-06-26T13:17:37.033Z,7.05
2019-06-26T13:20:10.492Z,6.50
2019-06-26T13:22:39.626Z,6.92
2019-06-26T13:25:09.057Z,7.15
2019-06-26T13:27:37.777Z,7.50
2019-06-26T13:30:08.517Z,6.72
2019-06-26T13:32:37.301Z,7.35
2019-06-26T13:35:08.429Z,7.65
2019-06-26T13:37:37.126Z,6.97
2019-06-26T13:40:08.886Z,6.92
2019-06-26T13:42:37.575Z,6.40
2019-06-26T13:45:09.548Z,7.83
2019-06-26T13:47:38.228Z,5.95
2019-06-26T13:50:08.049Z,6.37
2019-06-26T13:52:36.690Z,6.85
2019-06-26T13:55:07.568Z,6.80
2019-06-26T13:57:36.184Z,6.15
2019-06-26T14:00:10.225Z,6.45
2019-06-26T14:02:38.912Z,5.97
2019-06-26T14:05:10.076Z,6.12
2019-06-26T14:07:38.769Z,5.53
2019-06-26T14:10:08.647Z,6.62
2019-06-26T14:12:37.541Z,6.15
2019-06-26T14:15:07.808Z,6.85
2019-06-26T14:17:36.490Z,5.37
2019-06-26T14:20:08.308Z,5.65
2019-06-26T14:22:36.995Z,6.37
2019-06-26T14:25:07.675Z,6.50
2019-06-26T14:27:36.407Z,6.05
2019-06-26T14:30:08.355Z,5.67
2019-06-26T14:32:37.027Z,5.17
2019-06-26T14:35:06.510Z,6.45
2019-06-26T14:37:35.192Z,6.03
2019-06-26T14:40:07.427Z,6.35
2019-06-26T14:42:36.044Z,6.03
2019-06-26T14:45:07.234Z,6.05
2019-06-26T14:47:35.914Z,5.33
2019-06-26T14:50:06.400Z,5.05
2019-06-26T14:52:35.292Z,5.47
2019-06-26T14:55:06.118Z,5.58
2019-06-26T14:57:35.126Z,4.87
2019-06-26T15:00:06.277Z,5.00
2019-06-26T15:05:04.223Z,4.55
2019-06-26T15:07:32.941Z,4.42
2019-06-26T15:10:01.560Z,4.37
2019-06-26T15:12:30.316Z,4.33
2019-06-26T15:14:59.005Z,4.60
2019-06-26T15:17:27.679Z,4.55
2019-06-26T15:19:56.377Z,4.67
2019-06-26T15:22:25.074Z,4.50
2019-06-26T15:24:53.687Z,5.00
2019-06-26T15:27:22.309Z,5.47
2019-06-26T15:29:50.995Z,5.90
2019-06-26T15:32:19.615Z,5.72
2019-06-26T15:34:48.262Z,5.15
2019-06-26T15:37:16.958Z,5.30
2019-06-26T15:39:45.641Z,5.60
2019-06-26T15:42:14.320Z,6.00
2019-06-26T15:44:43.007Z,5.78
2019-06-26T15:47:11.720Z,5.47
2019-06-26T15:49:40.395Z,5.17
2019-06-26T15:52:15.010Z,5.95
2019-06-26T15:54:39.482Z,5.45
2019-06-26T15:57:08.104Z,5.55
2019-06-26T15:59:36.768Z,5.67
2019-06-26T16:02:05.464Z,6.05
2019-06-26T16:04:36.000Z,5.60
2019-06-26T16:07:05.062Z,4.93
2019-06-26T16:09:33.748Z,5.40
2019-06-26T16:12:02.491Z,5.85
2019-06-26T16:14:31.288Z,5.83
2019-06-26T16:17:00.034Z,5.58
2019-06-26T16:19:28.766Z,6.25
2019-06-26T16:21:57.391Z,5.67
2019-06-26T16:24:26.123Z,5.58
2019-06-26T16:26:54.904Z,5.53
2019-06-26T16:29:23.573Z,5.53
2019-06-26T16:31:52.266Z,6.12
2019-06-26T16:34:21.043Z,5.53
2019-06-26T16:36:49.750Z,5.45
2019-06-26T16:39:18.434Z,5.47
2019-06-26T16:41:49.128Z,5.67
2019-06-26T16:44:17.614Z,5.83
2019-06-26T16:46:46.336Z,5.53
2019-06-26T16:49:15.006Z,5.97
2019-06-26T16:51:43.619Z,6.50
2019-06-26T16:54:12.605Z,5.75
2019-06-26T16:56:41.226Z,6.10
2019-06-26T16:59:09.922Z,5.50
2019-06-26T17:01:38.657Z,6.20
2019-06-26T17:04:07.345Z,5.78
2019-06-26T17:06:36.018Z,5.42
2019-06-26T17:09:07.071Z,5.85
2019-06-26T17:11:35.703Z,6.20
2019-06-26T17:14:04.956Z,5.67
2019-06-26T17:16:33.641Z,5.42
2019-06-26T17:19:02.316Z,5.22
2019-06-26T17:21:31.131Z,5.35
2019-06-26T17:23:59.817Z,6.00
2019-06-26T17:26:28.593Z,6.12
2019-06-26T17:28:57.250Z,5.78
2019-06-26T17:31:27.284Z,5.45
2019-06-26T17:33:55.906Z,5.58
2019-06-26T17:36:24.531Z,5.12
2019-06-26T17:38:53.251Z,5.35
2019-06-26T17:41:21.941Z,5.58
2019-06-26T17:43:50.728Z,4.95
2019-06-26T17:46:19.403Z,4.78
2019-06-26T17:48:48.029Z,4.33
2019-06-26T17:51:16.713Z,4.90
2019-06-26T17:53:45.428Z,4.58
2019-06-26T17:56:14.158Z,4.50
2019-06-26T17:58:42.776Z,4.83
2019-06-26T18:01:11.450Z,5.17
2019-06-26T18:03:40.217Z,4.60
2019-06-26T18:06:08.907Z,5.25
2019-06-26T18:08:37.552Z,4.87
2019-06-26T18:11:06.583Z,4.33
2019-06-26T18:13:35.372Z,4.83
2019-06-26T18:16:04.158Z,4.47
2019-06-26T18:18:32.784Z,4.35
2019-06-26T18:21:01.950Z,4.67
2019-06-26T18:23:37.921Z,5.00
2019-06-26T18:26:12.598Z,4.80
2019-06-26T18:28:32.366Z,5.10
2019-06-26T18:31:01.817Z,4.15
2019-06-26T18:33:30.472Z,4.42
2019-06-26T18:35:59.201Z,4.25
2019-06-26T18:38:27.869Z,4.55
2019-06-26T18:40:56.492Z,4.28
2019-06-26T18:43:25.240Z,4.30
2019-06-26T18:45:53.857Z,4.40
2019-06-26T18:48:24.920Z,4.35
2019-06-26T18:50:53.043Z,4.12
2019-06-26T18:53:21.721Z,4.25
2019-06-26T18:55:50.399Z,4.00
2019-06-26T18:58:19.065Z,3.85
2019-06-26T19:00:47.734Z,3.80
2019-06-26T19:03:16.476Z,3.80
2019-06-26T19:05:45.161Z,3.55
2019-06-26T19:08:13.771Z,3.12
2019-06-26T19:10:43.382Z,3.50
2019-06-26T19:13:12.002Z,3.52
2019-06-26T19:15:41.652Z,3.33
2019-06-26T19:18:10.323Z,3.27
2019-06-26T19:20:39.018Z,3.40
2019-06-26T19:23:07.707Z,3.22
2019-06-26T19:25:36.390Z,3.02
2019-06-26T19:28:05.075Z,2.72
2019-06-26T19:30:33.771Z,3.00
2019-06-26T19:33:02.548Z,2.40
2019-06-26T19:35:31.225Z,2.30
2019-06-26T19:38:00.078Z,2.83
2019-06-26T19:40:28.980Z,2.37
2019-06-26T19:42:57.700Z,2.37
2019-06-26T19:45:27.210Z,2.50
2019-06-26T19:47:55.833Z,2.50
2019-06-26T19:50:24.500Z,2.60
2019-06-26T19:52:53.175Z,2.55
2019-06-26T19:55:21.786Z,2.65
2019-06-26T19:57:50.645Z,2.65
2019-06-26T20:00:19.429Z,2.65
2019-06-26T20:02:48.059Z,2.45
2019-06-26T20:05:17.618Z,2.58
2019-06-26T20:07:46.277Z,2.62
2019-06-26T20:10:15.418Z,2.62
2019-06-26T20:12:44.090Z,2.62
2019-06-26T20:15:12.885Z,2.80
2019-06-26T20:17:41.552Z,3.00
2019-06-26T20:20:10.864Z,2.83
2019-06-26T20:22:39.533Z,2.85
2019-06-26T20:25:09.561Z,2.90
2019-06-26T20:27:38.380Z,2.60
2019-06-26T20:30:09.706Z,2.92
2019-06-26T20:32:38.604Z,3.12
2019-06-26T20:35:07.945Z,2.87
2019-06-26T20:37:36.896Z,3.10
2019-06-26T20:40:07.831Z,3.02
2019-06-26T20:42:36.498Z,3.37
2019-06-26T20:45:06.837Z,3.37
2019-06-26T20:47:35.534Z,3.20
2019-06-26T20:50:06.886Z,3.70
2019-06-26T20:52:35.626Z,3.85
2019-06-26T20:55:06.714Z,3.90
2019-06-26T20:57:35.394Z,3.98
2019-06-26T21:00:05.725Z,3.87
2019-06-26T21:02:34.399Z,3.40
2019-06-26T21:05:06.606Z,3.67
2019-06-26T21:07:35.269Z,3.83
2019-06-26T21:10:04.894Z,3.85
2019-06-26T21:12:33.860Z,3.52
2019-06-26T21:15:02.855Z,3.83
2019-06-26T21:17:31.541Z,3.47
2019-06-26T21:20:00.193Z,3.75
2019-06-26T21:22:28.917Z,3.95
2019-06-26T21:24:57.666Z,3.98
2019-06-26T21:27:26.363Z,4.25
2019-06-26T21:29:55.073Z,4.10
2019-06-26T21:32:23.757Z,4.10
2019-06-26T21:34:52.458Z,4.35
2019-06-26T21:37:21.202Z,3.62
2019-06-26T21:39:49.942Z,3.58
2019-06-26T21:42:18.572Z,4.28
2019-06-26T21:44:47.241Z,4.10
2019-06-26T21:47:15.910Z,3.87
2019-06-26T21:49:44.578Z,3.60
2019-06-26T21:52:13.198Z,3.98
2019-06-26T21:54:41.936Z,4.03
2019-06-26T21:57:10.623Z,4.08
2019-06-26T21:59:39.241Z,3.85
2019-06-26T22:02:07.912Z,4.12
2019-06-26T22:04:36.542Z,3.80
2019-06-26T22:07:05.342Z,4.17
2019-06-26T22:09:34.032Z,3.80
2019-06-26T22:12:02.844Z,4.28
2019-06-26T22:14:31.543Z,3.75
2019-06-26T22:17:00.317Z,3.90
2019-06-26T22:19:28.939Z,3.58
2019-06-26T22:21:57.603Z,3.27
2019-06-26T22:24:26.272Z,3.17
2019-06-26T22:26:54.951Z,3.05
2019-06-26T22:29:23.617Z,2.58
2019-06-26T22:31:52.315Z,2.58
2019-06-26T22:34:21.706Z,2.25
2019-06-26T22:36:52.146Z,1.98
2019-06-26T22:39:20.766Z,1.95
2019-06-26T22:41:49.439Z,1.82
2019-06-26T22:44:18.058Z,1.98
2019-06-26T22:46:46.741Z,1.95
2019-06-26T22:49:15.391Z,1.82
2019-06-26T22:51:44.107Z,1.55
2019-06-26T22:54:12.865Z,1.80
2019-06-26T22:56:41.534Z,1.70
2019-06-26T22:59:10.203Z,1.62
2019-06-26T23:01:38.829Z,1.77
2019-06-26T23:04:07.494Z,1.50
2019-06-26T23:06:37.507Z,1.72
2019-06-26T23:09:07.542Z,1.52
2019-06-26T23:11:36.227Z,1.32
2019-06-26T23:14:04.961Z,1.60
2019-06-26T23:16:33.606Z,1.50
2019-06-26T23:19:02.287Z,1.12
2019-06-26T23:21:30.972Z,1.30
2019-06-26T23:23:59.642Z,1.22
2019-06-26T23:26:28.263Z,1.27
2019-06-26T23:28:56.899Z,1.25
2019-06-26T23:31:25.621Z,1.50
2019-06-26T23:33:54.301Z,1.30
2019-06-26T23:36:22.961Z,1.20
2019-06-26T23:38:51.642Z,1.20
2019-06-26T23:41:20.361Z,1.30
2019-06-26T23:43:49.048Z,1.20
2019-06-26T23:46:17.713Z,0.90
2019-06-26T23:48:46.381Z,1.10
2019-06-26T23:51:15.002Z,1.05
2019-06-26T23:53:43.688Z,1.20
2019-06-26T23:56:12.356Z,1.20
2019-06-26T23:58:40.976Z,1.20
